createdAt,value
2017-06-11T00:02:03.567Z,53.9
2017-06-11T00:07:03.548Z,54.0
2017-06-11T00:12:03.635Z,54.1
2017-06-11T00:17:03.247Z,53.9
2017-06-11T00:22:03.553Z,53.9
2017-06-11T00:27:03.138Z,53.9
2017-06-11T00:32:03.719Z,53.8
2017-06-11T00:37:03.118Z,53.9
2017-06-11T00:42:03.698Z,53.8
2017-06-11T00:47:03.196Z,53.9
2017-06-11T00:52:03.290Z,53.8
2017-06-11T00:57:03.842Z,53.8
2017-06-11T01:02:03.616Z,53.8
2017-06-11T01:07:03.389Z,53.6
2017-06-11T01:12:03.173Z,53.6
2017-06-11T01:17:03.790Z,53.6
2017-06-11T01:22:03.979Z,53.7
2017-06-11T01:27:03.625Z,53.5
2017-06-11T01:32:03.272Z,53.6
2017-06-11T01:37:03.871Z,53.6
2017-06-11T01:42:03.448Z,53.4
2017-06-11T01:47:03.148Z,53.4
2017-06-11T01:52:03.637Z,53.4
2017-06-11T01:57:03.236Z,53.4
2017-06-11T02:02:03.942Z,53.3
2017-06-11T02:07:03.440Z,53.4
2017-06-11T02:12:03.323Z,53.4
2017-06-11T02:17:03.147Z,53.4
2017-06-11T02:22:03.780Z,53.2
2017-06-11T02:27:04.022Z,53.2
2017-06-11T02:32:07.186Z,53.1
2017-06-11T02:37:03.821Z,53.2
2017-06-11T02:42:03.167Z,53.2
2017-06-11T02:47:22.344Z,53.2
2017-06-11T02:52:03.065Z,53.2
2017-06-11T02:57:03.390Z,53.0
2017-06-11T03:02:21.965Z,53.1
2017-06-11T03:07:03.252Z,53.1
2017-06-11T03:12:03.499Z,53.0
2017-06-11T03:17:23.965Z,53.2
2017-06-11T03:22:03.804Z,53.0
2017-06-11T03:27:03.181Z,53.0
2017-06-11T03:32:24.288Z,53.0
2017-06-11T03:37:03.996Z,53.1
2017-06-11T03:42:03.252Z,52.9
2017-06-11T03:47:22.317Z,52.9
2017-06-11T03:52:03.117Z,52.9
2017-06-11T03:57:03.464Z,52.9
2017-06-11T04:02:28.747Z,52.9
2017-06-11T04:07:03.453Z,52.6
2017-06-11T04:12:03.875Z,52.6
2017-06-11T04:17:24.021Z,52.5
2017-06-11T04:22:03.725Z,52.3
2017-06-11T04:27:04.055Z,52.0
2017-06-11T04:32:24.660Z,51.9
2017-06-11T04:37:03.812Z,51.7
2017-06-11T04:42:03.085Z,51.6
2017-06-11T04:52:03.861Z,51.4
2017-06-11T04:57:03.219Z,51.4
2017-06-11T05:02:24.012Z,51.4
2017-06-11T05:07:03.200Z,51.5
2017-06-11T05:12:03.671Z,51.4
2017-06-11T05:17:24.504Z,51.4
2017-06-11T05:22:03.775Z,51.4
2017-06-11T05:27:03.206Z,51.4
2017-06-11T05:32:29.141Z,51.5
2017-06-11T05:37:03.407Z,51.6
2017-06-11T05:42:03.808Z,51.6
2017-06-11T05:47:28.862Z,51.6
2017-06-11T05:52:03.423Z,51.6
2017-06-11T05:57:03.758Z,51.7
2017-06-11T06:02:27.482Z,51.9
2017-06-11T06:07:03.655Z,51.8
2017-06-11T06:12:03.124Z,51.8
2017-06-11T06:17:29.351Z,52.0
2017-06-11T06:22:03.086Z,52.2
2017-06-11T06:27:03.537Z,52.2
2017-06-11T06:32:24.178Z,52.5
2017-06-11T06:37:03.923Z,52.4
2017-06-11T06:42:03.325Z,52.4
2017-06-11T06:47:29.194Z,52.7
2017-06-11T06:52:03.744Z,52.7
2017-06-11T06:57:03.154Z,52.8
2017-06-11T07:07:03.645Z,53.1
2017-06-11T07:12:03.064Z,53.3
2017-06-11T07:17:25.559Z,53.5
2017-06-11T07:22:03.893Z,53.7
2017-06-11T07:27:03.215Z,53.7
2017-06-11T07:32:27.891Z,53.8
2017-06-11T07:37:03.613Z,53.8
2017-06-11T07:42:03.047Z,53.8
2017-06-11T07:47:28.396Z,54.1
2017-06-11T07:52:03.463Z,54.1
2017-06-11T07:57:03.838Z,54.1
2017-06-11T08:02:27.991Z,54.1
2017-06-11T08:07:03.517Z,54.8
2017-06-11T08:12:03.568Z,54.4
2017-06-11T08:17:28.348Z,54.5
2017-06-11T08:22:03.822Z,55.0
2017-06-11T08:27:03.266Z,55.0
2017-06-11T08:32:28.010Z,55.0
2017-06-11T08:37:03.842Z,55.0
2017-06-11T08:42:03.287Z,55.7
2017-06-11T08:47:24.426Z,55.7
2017-06-11T08:52:03.690Z,55.5
2017-06-11T08:57:03.132Z,55.5
2017-06-11T09:02:28.087Z,55.5
2017-06-11T09:07:03.724Z,56.0
2017-06-11T09:12:03.487Z,55.9
2017-06-11T09:17:29.089Z,55.8
2017-06-11T09:22:03.696Z,56.4
2017-06-11T09:27:03.159Z,55.9
2017-06-11T09:32:27.757Z,56.3
2017-06-11T09:37:03.501Z,56.3
2017-06-11T09:42:03.789Z,56.5
2017-06-11T09:47:23.853Z,56.3
2017-06-11T09:52:03.055Z,56.1
2017-06-11T09:57:03.530Z,56.4
2017-06-11T10:02:27.235Z,56.7
2017-06-11T10:07:03.159Z,56.8
2017-06-11T10:12:03.577Z,57.2
2017-06-11T10:17:25.706Z,57.1
2017-06-11T10:22:03.923Z,56.6
2017-06-11T10:27:03.719Z,57.4
2017-06-11T10:32:28.256Z,57.2
2017-06-11T10:37:03.971Z,57.6
2017-06-11T10:42:03.624Z,57.6
2017-06-11T10:47:23.982Z,57.7
2017-06-11T10:52:03.709Z,57.7
2017-06-11T10:57:03.310Z,57.7
2017-06-11T11:02:24.037Z,57.8
2017-06-11T11:07:03.379Z,58.5
2017-06-11T11:12:03.855Z,58.0
2017-06-11T11:17:28.269Z,58.4
2017-06-11T11:22:03.932Z,58.5
2017-06-11T11:27:03.803Z,58.5
2017-06-11T11:32:24.313Z,58.2
2017-06-11T11:37:03.762Z,58.3
2017-06-11T11:42:03.269Z,58.6
2017-06-11T11:47:28.805Z,58.9
2017-06-11T11:52:03.572Z,58.9
2017-06-11T11:57:03.018Z,58.8
2017-06-11T12:02:23.612Z,59.1
2017-06-11T12:07:03.524Z,59.1
2017-06-11T12:12:03.147Z,58.9
2017-06-11T12:17:28.677Z,59.5
2017-06-11T12:22:03.392Z,59.6
2017-06-11T12:27:03.840Z,59.6
2017-06-11T12:32:23.479Z,59.4
2017-06-11T12:37:03.515Z,59.4
2017-06-11T12:42:03.824Z,59.4
2017-06-11T12:47:28.404Z,59.4
2017-06-11T12:52:03.645Z,59.4
2017-06-11T12:57:03.061Z,59.9
2017-06-11T13:02:28.743Z,59.7
2017-06-11T13:07:03.745Z,59.9
2017-06-11T13:12:03.271Z,60.3
2017-06-11T13:17:28.904Z,60.3
2017-06-11T13:22:03.886Z,60.1
2017-06-11T13:27:03.230Z,60.1
2017-06-11T13:32:28.277Z,60.3
2017-06-11T13:37:03.436Z,60.8
2017-06-11T13:42:03.761Z,61.0
2017-06-11T13:47:27.972Z,60.9
2017-06-11T13:52:03.214Z,61.2
2017-06-11T13:57:03.153Z,61.2
2017-06-11T14:02:27.961Z,61.1
2017-06-11T14:07:03.442Z,61.1
2017-06-11T14:12:03.761Z,61.5
2017-06-11T14:17:28.696Z,60.3
2017-06-11T14:22:03.287Z,60.4
2017-06-11T14:27:03.671Z,59.8
2017-06-11T14:32:28.148Z,57.6
2017-06-11T14:37:03.420Z,56.8
2017-06-11T14:42:03.707Z,56.7
2017-06-11T14:47:28.059Z,56.6
2017-06-11T14:52:03.893Z,56.6
2017-06-11T14:57:03.230Z,49.8
2017-06-11T15:02:29.685Z,49.8
2017-06-11T15:07:03.508Z,45.2
2017-06-11T15:12:03.891Z,43.4
2017-06-11T15:17:21.402Z,41.7
2017-06-11T15:22:03.438Z,41.7
2017-06-11T15:27:03.810Z,41.6
2017-06-11T15:32:19.252Z,41.7
2017-06-11T15:37:03.015Z,41.2
2017-06-11T15:42:03.315Z,40.8
2017-06-11T15:47:23.274Z,49.1
2017-06-11T15:52:03.246Z,49.1
2017-06-11T15:57:03.609Z,51.4
2017-06-11T16:02:22.093Z,51.7
2017-06-11T16:07:03.682Z,46.6
2017-06-11T16:12:03.123Z,52.4
2017-06-11T16:17:19.666Z,52.4
2017-06-11T16:22:03.539Z,54.4
2017-06-11T16:27:03.865Z,54.4
2017-06-11T16:32:21.619Z,55.2
2017-06-11T16:37:03.663Z,55.5
2017-06-11T16:42:03.100Z,56.4
2017-06-11T16:47:24.278Z,58.1
2017-06-11T16:52:03.142Z,58.1
2017-06-11T16:57:03.551Z,58.6
2017-06-11T17:02:24.620Z,58.4
2017-06-11T17:07:03.614Z,58.7
2017-06-11T17:12:02.991Z,58.4
2017-06-11T17:17:19.454Z,47.4
2017-06-11T17:22:03.804Z,47.3
2017-06-11T17:27:04.037Z,42.9
2017-06-11T17:32:16.140Z,39.0
2017-06-11T17:37:03.440Z,38.5
2017-06-11T17:42:03.824Z,40.3
2017-06-11T17:47:18.177Z,40.3
2017-06-11T17:52:03.732Z,40.8
2017-06-11T17:57:03.053Z,46.7
2017-06-11T18:02:13.369Z,45.9
2017-06-11T18:07:03.855Z,43.8
2017-06-11T18:12:03.264Z,43.8
2017-06-11T18:17:23.677Z,44.3
2017-06-11T18:22:03.131Z,52.3
2017-06-11T18:27:03.509Z,52.3
2017-06-11T18:32:25.373Z,53.7
2017-06-11T18:37:03.713Z,54.9
2017-06-11T18:42:03.057Z,56.4
2017-06-11T18:47:22.077Z,56.9
2017-06-11T18:52:03.792Z,57.5
2017-06-11T18:57:03.229Z,57.5
2017-06-11T19:02:28.660Z,57.5
2017-06-11T19:07:03.288Z,58.1
2017-06-11T19:12:03.828Z,58.1
2017-06-11T19:17:29.047Z,58.2
2017-06-11T19:22:03.819Z,57.8
2017-06-11T19:27:03.350Z,57.8
2017-06-11T19:37:03.688Z,57.5
2017-06-11T19:42:03.939Z,57.8
2017-06-11T19:47:28.971Z,57.5
2017-06-11T19:52:03.686Z,57.5
2017-06-11T19:57:03.128Z,57.0
2017-06-11T20:02:18.720Z,57.0
2017-06-11T20:07:03.263Z,57.0
2017-06-11T20:12:03.832Z,57.3
2017-06-11T20:17:07.118Z,57.0
2017-06-11T20:22:03.634Z,56.9
2017-06-11T20:27:04.000Z,56.3
2017-06-11T20:32:10.386Z,56.3
2017-06-11T20:37:03.674Z,56.3
2017-06-11T20:42:03.064Z,56.3
2017-06-11T20:47:03.539Z,56.3
2017-06-11T20:52:03.618Z,56.3
2017-06-11T20:57:03.888Z,56.3
2017-06-11T21:02:03.933Z,56.3
2017-06-11T21:07:03.725Z,55.9
2017-06-11T21:12:03.121Z,55.9
2017-06-11T21:17:03.668Z,56.0
2017-06-11T21:22:03.732Z,55.9
2017-06-11T21:27:03.972Z,55.9
2017-06-11T21:32:03.388Z,55.9
2017-06-11T21:37:03.744Z,56.0
2017-06-11T21:42:03.917Z,56.1
2017-06-11T21:47:03.504Z,56.2
2017-06-11T21:52:03.565Z,56.0
2017-06-11T21:57:03.817Z,56.2
2017-06-11T22:02:03.176Z,56.2
2017-06-11T22:07:03.188Z,56.1
2017-06-11T22:12:03.192Z,56.1
2017-06-11T22:22:03.472Z,55.8
2017-06-11T22:27:03.771Z,56.2
2017-06-11T22:32:03.218Z,56.1
2017-06-11T22:37:03.526Z,56.1
2017-06-11T22:42:03.898Z,56.0
2017-06-11T22:47:03.431Z,55.9
2017-06-11T22:52:03.249Z,56.0
2017-06-11T22:57:03.090Z,55.8
2017-06-11T23:02:03.838Z,55.9
2017-06-11T23:07:03.388Z,56.0
2017-06-11T23:12:03.154Z,55.9
2017-06-11T23:17:03.817Z,56.0
2017-06-11T23:22:03.793Z,56.0
2017-06-11T23:27:03.529Z,56.0
2017-06-11T23:32:03.159Z,56.1
2017-06-11T23:37:03.584Z,56.1
2017-06-11T23:42:03.171Z,56.2
2017-06-11T23:47:03.878Z,56.2
2017-06-11T23:52:03.610Z,56.2
2017-06-11T23:57:03.428Z,56.2
